createdAt,value
2023-05-20T00:00:07.815Z,2.37
2023-05-20T00:02:37.065Z,3.47
2023-05-20T00:05:06.203Z,3.05
2023-05-20T00:07:34.923Z,2.98
2023-05-20T00:10:03.548Z,3.90
2023-05-20T00:12:32.182Z,5.25
2023-05-20T00:15:01.042Z,2.62
2023-05-20T00:17:29.728Z,3.45
2023-05-20T00:20:00.054Z,3.35
2023-05-20T00:22:28.670Z,2.80
2023-05-20T00:24:57.288Z,3.42
2023-05-20T00:27:25.909Z,3.02
2023-05-20T00:29:54.617Z,2.83
2023-05-20T00:32:23.381Z,5.30
2023-05-20T00:35:18.581Z,4.35
2023-05-20T00:37:47.218Z,2.17
2023-05-20T00:40:16.275Z,2.95
2023-05-20T00:42:44.868Z,2.77
2023-05-20T00:45:13.492Z,3.72
2023-05-20T00:47:43.176Z,2.05
2023-05-20T00:50:12.119Z,2.77
2023-05-20T00:52:43.156Z,2.90
2023-05-20T00:55:11.834Z,2.10
2023-05-20T00:57:40.768Z,2.15
2023-05-20T01:00:10.893Z,1.92
2023-05-20T01:02:39.610Z,4.80
2023-05-20T01:05:08.998Z,2.45
2023-05-20T01:07:37.748Z,3.42
2023-05-20T01:10:07.205Z,3.72
2023-05-20T01:12:41.798Z,2.50
2023-05-20T01:15:12.492Z,3.20
2023-05-20T01:17:47.007Z,4.20
2023-05-20T01:20:16.560Z,4.17
2023-05-20T01:23:15.199Z,3.02
2023-05-20T01:25:43.917Z,4.12
2023-05-20T01:28:14.320Z,3.58
2023-05-20T01:30:46.370Z,2.60
2023-05-20T01:33:17.472Z,2.20
2023-05-20T01:35:46.260Z,3.37
2023-05-20T01:38:16.537Z,2.62
2023-05-20T01:40:47.125Z,3.20
2023-05-20T01:43:18.366Z,2.90
2023-05-20T01:45:47.079Z,2.47
2023-05-20T01:50:54.019Z,2.80
2023-05-20T01:53:22.652Z,3.17
2023-05-20T01:55:51.462Z,5.65
2023-05-20T01:58:20.152Z,4.28
2023-05-20T02:00:48.892Z,4.42
2023-05-20T02:03:17.651Z,3.22
2023-05-20T02:05:46.356Z,3.75
2023-05-20T02:08:15.040Z,4.30
2023-05-20T02:10:43.656Z,4.42
2023-05-20T02:13:12.293Z,3.80
2023-05-20T02:15:42.923Z,3.37
2023-05-20T02:18:12.812Z,3.40
2023-05-20T02:20:42.738Z,5.17
2023-05-20T02:23:11.505Z,8.45
2023-05-20T02:25:41.904Z,3.05
2023-05-20T02:28:12.159Z,5.78
2023-05-20T02:30:41.001Z,2.98
2023-05-20T02:33:09.781Z,3.60
2023-05-20T02:35:38.528Z,5.58
2023-05-20T02:38:07.407Z,3.52
2023-05-20T02:40:36.136Z,5.20
2023-05-20T02:43:04.883Z,3.75
2023-05-20T02:45:33.524Z,6.47
2023-05-20T02:48:02.267Z,5.70
2023-05-20T02:50:30.855Z,5.92
2023-05-20T02:52:59.497Z,5.20
2023-05-20T02:55:28.264Z,6.80
2023-05-20T02:57:57.108Z,5.67
2023-05-20T03:00:31.802Z,8.73
2023-05-20T03:03:06.843Z,3.45
2023-05-20T03:05:33.971Z,4.70
2023-05-20T03:08:10.518Z,3.02
2023-05-20T03:10:42.158Z,4.08
2023-05-20T03:13:21.908Z,5.00
2023-05-20T03:15:58.385Z,9.60
2023-05-20T03:18:33.946Z,3.83
2023-05-20T03:21:01.872Z,6.80
2023-05-20T03:23:45.928Z,7.00
2023-05-20T03:26:27.252Z,4.03
2023-05-20T03:28:56.106Z,5.62
2023-05-20T03:31:29.512Z,4.53
2023-05-20T03:33:59.227Z,4.33
2023-05-20T03:36:36.693Z,5.25
2023-05-20T03:39:14.612Z,3.80
2023-05-20T03:41:46.904Z,4.42
2023-05-20T03:44:23.291Z,3.90
2023-05-20T03:47:10.573Z,5.58
2023-05-20T03:49:41.469Z,3.40
2023-05-20T03:52:21.273Z,5.92
2023-05-20T03:54:43.946Z,4.08
2023-05-20T03:57:24.641Z,4.37
2023-05-20T03:59:48.326Z,4.87
2023-05-20T04:02:17.430Z,5.33
2023-05-20T04:04:48.029Z,5.97
2023-05-20T04:07:16.923Z,3.98
2023-05-20T04:09:46.421Z,4.33
2023-05-20T04:12:21.757Z,5.05
2023-05-20T04:14:52.889Z,8.10
2023-05-20T04:20:06.714Z,4.58
2023-05-20T04:22:42.365Z,5.62
2023-05-20T04:25:31.408Z,5.17
2023-05-20T04:28:12.167Z,5.20
2023-05-20T04:31:22.444Z,3.85
2023-05-20T04:33:50.277Z,3.65
2023-05-20T04:39:10.169Z,5.12
2023-05-20T04:41:40.753Z,4.15
2023-05-20T04:44:12.922Z,5.60
2023-05-20T04:46:43.217Z,4.60
2023-05-20T04:49:49.003Z,3.87
2023-05-20T04:52:18.101Z,6.95
2023-05-20T04:54:46.727Z,4.75
2023-05-20T04:57:15.377Z,3.27
2023-05-20T04:59:45.632Z,5.72
2023-05-20T05:02:14.774Z,5.50
2023-05-20T05:04:43.452Z,5.00
2023-05-20T05:07:12.023Z,5.55
2023-05-20T05:09:40.701Z,2.40
2023-05-20T05:12:09.349Z,3.42
2023-05-20T05:17:20.674Z,4.83
2023-05-20T05:19:49.379Z,3.40
2023-05-20T05:22:17.984Z,3.75
2023-05-20T05:24:46.694Z,4.87
2023-05-20T05:27:15.336Z,3.80
2023-05-20T05:29:44.005Z,5.25
2023-05-20T05:32:12.694Z,4.25
2023-05-20T05:34:41.366Z,2.90
2023-05-20T05:37:09.981Z,3.80
2023-05-20T05:39:38.616Z,4.03
2023-05-20T05:42:07.260Z,2.62
2023-05-20T05:44:35.945Z,5.72
2023-05-20T05:47:05.848Z,4.35
2023-05-20T05:49:35.205Z,3.20
2023-05-20T05:52:03.967Z,5.35
2023-05-20T05:54:32.599Z,5.87
2023-05-20T05:57:01.269Z,5.47
2023-05-20T05:59:29.888Z,6.03
2023-05-20T06:01:58.565Z,3.55
2023-05-20T06:04:27.426Z,3.42
2023-05-20T06:06:56.185Z,5.22
2023-05-20T06:09:24.782Z,4.15
2023-05-20T06:11:53.428Z,6.03
2023-05-20T06:14:22.198Z,5.45
2023-05-20T06:16:50.888Z,3.95
2023-05-20T06:19:19.685Z,4.75
2023-05-20T06:21:48.292Z,4.33
2023-05-20T06:24:17.091Z,4.90
2023-05-20T06:26:46.165Z,7.97
2023-05-20T06:29:14.860Z,3.87
2023-05-20T06:31:43.460Z,3.85
2023-05-20T06:34:12.085Z,4.45
2023-05-20T06:36:40.776Z,5.12
2023-05-20T06:39:11.133Z,4.90
2023-05-20T06:41:41.010Z,5.20
2023-05-20T06:44:09.650Z,4.12
2023-05-20T06:46:38.320Z,3.22
2023-05-20T06:49:06.957Z,3.77
2023-05-20T06:51:35.615Z,3.98
2023-05-20T06:54:04.248Z,5.60
2023-05-20T06:56:32.887Z,5.28
2023-05-20T06:59:01.504Z,3.98
2023-05-20T07:01:30.181Z,4.55
2023-05-20T07:03:58.832Z,6.35
2023-05-20T07:06:27.482Z,5.85
2023-05-20T07:08:56.176Z,3.60
2023-05-20T07:11:24.822Z,3.50
2023-05-20T07:13:53.652Z,7.45
2023-05-20T07:16:22.285Z,5.53
2023-05-20T07:18:50.941Z,4.72
2023-05-20T07:21:19.680Z,4.12
2023-05-20T07:23:48.361Z,6.00
2023-05-20T07:26:17.003Z,5.65
2023-05-20T07:28:47.108Z,3.98
2023-05-20T07:31:15.955Z,3.67
2023-05-20T07:33:44.541Z,5.30
2023-05-20T07:36:13.191Z,3.45
2023-05-20T07:38:47.208Z,5.33
2023-05-20T07:41:12.129Z,8.93
2023-05-20T07:43:40.763Z,3.90
2023-05-20T07:46:09.525Z,5.80
2023-05-20T07:48:38.134Z,3.92
2023-05-20T07:51:06.976Z,3.25
2023-05-20T07:53:36.101Z,5.75
2023-05-20T07:56:04.905Z,4.92
2023-05-20T07:58:33.921Z,5.25
2023-05-20T08:01:02.604Z,4.67
2023-05-20T08:03:31.313Z,6.30
2023-05-20T08:06:00.112Z,4.58
2023-05-20T08:08:30.523Z,4.37
2023-05-20T08:10:59.228Z,3.15
2023-05-20T08:13:28.022Z,6.15
2023-05-20T08:15:56.930Z,6.28
2023-05-20T08:18:28.836Z,4.10
2023-05-20T08:20:57.747Z,4.17
2023-05-20T08:23:26.652Z,6.00
2023-05-20T08:25:55.278Z,5.40
2023-05-20T08:28:23.978Z,4.42
2023-05-20T08:30:52.953Z,4.62
2023-05-20T08:33:22.405Z,6.45
2023-05-20T08:35:51.087Z,4.47
2023-05-20T08:38:19.743Z,4.50
2023-05-20T08:40:53.948Z,6.62
2023-05-20T08:43:23.708Z,4.22
2023-05-20T08:45:55.621Z,5.05
2023-05-20T08:48:26.856Z,3.97
2023-05-20T08:50:58.023Z,4.92
2023-05-20T08:53:28.000Z,5.45
2023-05-20T08:56:03.001Z,5.12
2023-05-20T08:58:33.946Z,4.97
2023-05-20T09:01:03.066Z,5.70
2023-05-20T09:03:32.155Z,4.47
2023-05-20T09:06:08.857Z,6.40
2023-05-20T09:08:37.726Z,5.75
2023-05-20T09:11:06.364Z,7.92
2023-05-20T09:13:35.018Z,5.60
2023-05-20T09:16:04.429Z,5.10
2023-05-20T09:18:33.152Z,6.17
2023-05-20T09:21:04.813Z,5.20
2023-05-20T09:23:33.615Z,4.78
2023-05-20T09:26:02.731Z,4.83
2023-05-20T09:28:31.362Z,7.58
2023-05-20T09:31:02.722Z,6.45
2023-05-20T09:33:32.344Z,3.80
2023-05-20T09:36:05.588Z,8.08
2023-05-20T09:38:38.904Z,4.37
2023-05-20T09:41:13.010Z,5.08
2023-05-20T09:43:42.525Z,5.55
2023-05-20T09:46:12.048Z,4.05
2023-05-20T09:48:41.274Z,6.10
2023-05-20T09:51:10.924Z,5.00
2023-05-20T09:53:39.590Z,6.97
2023-05-20T09:56:08.270Z,6.17
2023-05-20T09:58:41.669Z,4.53
2023-05-20T10:01:10.364Z,5.35
2023-05-20T10:03:40.120Z,8.05
2023-05-20T10:06:31.511Z,10.43
2023-05-20T10:09:21.345Z,6.28
2023-05-20T10:12:08.014Z,5.37
2023-05-20T10:14:51.346Z,7.40
2023-05-20T10:17:23.677Z,6.20
2023-05-20T10:19:55.362Z,4.47
2023-05-20T10:22:32.725Z,4.80
2023-05-20T10:25:03.636Z,6.12
2023-05-20T10:27:33.797Z,6.75
2023-05-20T10:30:02.450Z,9.35
2023-05-20T10:32:33.117Z,4.00
2023-05-20T10:35:07.244Z,5.83
2023-05-20T10:37:44.474Z,7.87
2023-05-20T10:40:19.170Z,5.53
2023-05-20T10:42:48.220Z,5.28
2023-05-20T10:45:32.281Z,5.10
2023-05-20T10:48:01.114Z,7.78
2023-05-20T10:50:37.421Z,9.23
2023-05-20T10:53:13.189Z,5.20
2023-05-20T10:55:40.629Z,4.92
2023-05-20T10:58:11.204Z,5.17
2023-05-20T11:00:41.151Z,7.90
2023-05-20T11:03:10.485Z,7.10
2023-05-20T11:05:40.969Z,5.80
2023-05-20T11:08:24.604Z,8.63
2023-05-20T11:10:43.759Z,8.23
2023-05-20T11:13:16.225Z,5.30
2023-05-20T11:15:45.573Z,6.22
2023-05-20T11:18:17.056Z,5.62
2023-05-20T11:20:47.573Z,6.10
2023-05-20T11:23:18.362Z,6.90
2023-05-20T11:25:47.090Z,7.92
2023-05-20T11:28:16.584Z,10.90
2023-05-20T11:30:45.294Z,6.35
2023-05-20T11:33:15.317Z,6.60
2023-05-20T11:35:52.921Z,7.62
2023-05-20T11:38:22.230Z,7.03
2023-05-20T11:40:57.001Z,6.42
2023-05-20T11:43:26.199Z,6.45
2023-05-20T11:46:01.888Z,7.30
2023-05-20T11:48:30.516Z,8.43
2023-05-20T11:51:01.307Z,8.60
2023-05-20T11:53:29.463Z,6.80
2023-05-20T11:55:59.967Z,7.70
2023-05-20T11:58:31.323Z,8.18
2023-05-20T12:01:13.412Z,8.43
2023-05-20T12:03:31.986Z,8.60
2023-05-20T12:06:03.279Z,6.53
2023-05-20T12:08:31.909Z,8.45
2023-05-20T12:11:00.535Z,7.58
2023-05-20T12:13:30.606Z,7.25
2023-05-20T12:15:59.263Z,7.58
2023-05-20T12:18:27.892Z,8.70
2023-05-20T12:20:56.549Z,11.43
2023-05-20T12:23:26.938Z,9.75
2023-05-20T12:25:55.647Z,8.90
2023-05-20T12:28:24.402Z,6.28
2023-05-20T12:30:53.163Z,7.78
2023-05-20T12:33:22.340Z,7.15
2023-05-20T12:35:51.012Z,6.70
2023-05-20T12:38:20.195Z,5.40
2023-05-20T12:48:49.725Z,8.03
2023-05-20T12:51:20.238Z,8.38
2023-05-20T12:53:50.499Z,7.00
2023-05-20T12:56:19.974Z,6.20
2023-05-20T12:58:48.736Z,6.33
2023-05-20T13:01:17.412Z,4.87
2023-05-20T13:03:47.261Z,8.68
2023-05-20T13:06:16.742Z,7.25
2023-05-20T13:08:45.416Z,5.70
2023-05-20T13:11:14.143Z,6.03
2023-05-20T13:13:42.955Z,5.87
2023-05-20T13:16:11.999Z,6.80
2023-05-20T13:18:40.731Z,6.17
2023-05-20T13:21:09.324Z,6.70
2023-05-20T13:23:38.463Z,5.65
2023-05-20T13:26:07.187Z,5.70
2023-05-20T13:28:36.960Z,9.38
2023-05-20T13:31:07.382Z,5.58
2023-05-20T13:33:36.769Z,5.40
2023-05-20T13:36:05.684Z,7.70
2023-05-20T13:38:37.631Z,5.28
2023-05-20T13:41:07.643Z,6.12
2023-05-20T13:43:36.299Z,5.20
2023-05-20T13:46:05.182Z,5.83
2023-05-20T13:48:33.828Z,7.28
2023-05-20T13:51:02.535Z,5.22
2023-05-20T13:53:32.332Z,6.12
2023-05-20T13:56:01.218Z,6.40
2023-05-20T13:58:30.720Z,4.87
2023-05-20T14:01:00.529Z,9.98
2023-05-20T14:03:30.063Z,5.65
2023-05-20T14:05:59.014Z,4.22
2023-05-20T14:08:30.550Z,4.62
2023-05-20T14:11:00.987Z,4.50
2023-05-20T14:13:29.773Z,9.93
2023-05-20T14:15:58.602Z,8.40
2023-05-20T14:18:27.348Z,3.95
2023-05-20T14:20:56.428Z,4.12
2023-05-20T14:23:25.079Z,4.83
2023-05-20T14:25:53.848Z,4.45
2023-05-20T14:28:22.463Z,6.20
2023-05-20T14:30:51.167Z,4.80
2023-05-20T14:33:19.894Z,4.10
2023-05-20T14:35:48.569Z,5.03
2023-05-20T14:38:19.217Z,6.10
2023-05-20T14:40:47.880Z,6.47
2023-05-20T14:43:16.877Z,5.35
2023-05-20T14:45:47.192Z,4.65
2023-05-20T14:48:15.942Z,4.25
2023-05-20T14:50:44.693Z,3.87
2023-05-20T14:53:13.970Z,4.92
2023-05-20T14:55:42.625Z,5.40
2023-05-20T14:58:11.386Z,7.47
2023-05-20T15:00:40.548Z,6.72
2023-05-20T15:03:09.352Z,4.03
2023-05-20T15:05:38.083Z,6.47
2023-05-20T15:08:06.743Z,4.15
2023-05-20T15:10:36.076Z,6.83
2023-05-20T15:13:04.804Z,6.85
2023-05-20T15:15:34.224Z,3.70
2023-05-20T15:18:02.962Z,7.45
2023-05-20T15:20:31.632Z,5.62
2023-05-20T15:23:01.147Z,4.97
2023-05-20T15:25:30.077Z,4.05
2023-05-20T15:27:58.729Z,6.17
2023-05-20T15:30:28.678Z,4.83
2023-05-20T15:32:57.821Z,9.08
2023-05-20T15:35:26.958Z,4.15
2023-05-20T15:37:55.676Z,4.35
2023-05-20T15:40:24.398Z,4.78
2023-05-20T15:42:53.639Z,6.15
2023-05-20T15:45:22.426Z,4.35
2023-05-20T15:47:51.095Z,4.60
2023-05-20T15:50:19.775Z,5.12
2023-05-20T15:52:48.446Z,5.17
2023-05-20T15:55:17.208Z,6.40
2023-05-20T15:57:46.013Z,8.75
2023-05-20T16:00:15.856Z,4.55
2023-05-20T16:02:44.829Z,4.58
2023-05-20T16:05:13.940Z,6.20
2023-05-20T16:07:44.119Z,5.60
2023-05-20T16:10:12.979Z,5.45
2023-05-20T16:12:41.992Z,4.30
2023-05-20T16:15:11.046Z,4.20
2023-05-20T16:17:40.199Z,5.60
2023-05-20T16:20:10.034Z,4.87
2023-05-20T16:22:38.712Z,5.85
2023-05-20T16:25:07.461Z,6.05
2023-05-20T16:27:36.249Z,5.00
2023-05-20T16:30:07.226Z,7.00
2023-05-20T16:32:35.982Z,7.22
2023-05-20T16:35:05.028Z,6.08
2023-05-20T16:37:33.746Z,5.72
2023-05-20T16:40:02.468Z,4.60
2023-05-20T16:42:31.180Z,6.42
2023-05-20T16:44:59.816Z,6.92
2023-05-20T16:47:28.491Z,7.87
2023-05-20T16:49:57.084Z,6.83
2023-05-20T16:52:25.974Z,5.80
2023-05-20T16:54:56.272Z,5.00
2023-05-20T16:57:24.900Z,5.42
2023-05-20T16:59:53.614Z,6.42
2023-05-20T17:02:22.389Z,5.10
2023-05-20T17:04:51.150Z,7.83
2023-05-20T17:07:19.830Z,9.43
2023-05-20T17:09:48.549Z,4.58
2023-05-20T17:12:17.237Z,4.95
2023-05-20T17:14:46.064Z,5.25
2023-05-20T17:17:14.959Z,4.92
2023-05-20T17:19:44.043Z,5.55
2023-05-20T17:22:12.813Z,5.80
2023-05-20T17:24:41.586Z,4.90
2023-05-20T17:27:10.462Z,5.15
2023-05-20T17:29:39.171Z,5.37
2023-05-20T17:32:08.160Z,5.53
2023-05-20T17:34:36.851Z,5.65
2023-05-20T17:37:05.814Z,5.72
2023-05-20T17:39:34.465Z,6.97
2023-05-20T17:42:03.089Z,5.92
2023-05-20T17:44:31.731Z,5.45
2023-05-20T17:47:00.436Z,7.62
2023-05-20T17:49:29.061Z,5.45
2023-05-20T17:51:57.731Z,5.45
2023-05-20T17:54:26.489Z,5.08
2023-05-20T17:56:55.077Z,5.37
2023-05-20T17:59:23.734Z,10.03
2023-05-20T18:01:52.799Z,5.10
2023-05-20T18:04:21.888Z,5.87
2023-05-20T18:06:50.521Z,5.85
2023-05-20T18:09:19.658Z,5.22
2023-05-20T18:11:48.315Z,5.35
2023-05-20T18:14:18.600Z,6.15
2023-05-20T18:16:47.229Z,4.33
2023-05-20T18:19:16.062Z,4.95
2023-05-20T18:21:44.750Z,4.50
2023-05-20T18:24:15.042Z,6.42
2023-05-20T18:26:44.425Z,7.90
2023-05-20T18:29:13.143Z,6.60
2023-05-20T18:31:43.467Z,6.22
2023-05-20T18:34:12.383Z,5.33
2023-05-20T18:36:41.041Z,6.55
2023-05-20T18:39:10.623Z,4.83
2023-05-20T18:41:47.326Z,4.95
2023-05-20T18:44:09.531Z,5.42
2023-05-20T18:46:38.280Z,9.53
2023-05-20T18:49:07.047Z,5.17
2023-05-20T18:51:35.884Z,5.78
2023-05-20T18:54:04.600Z,7.78
2023-05-20T18:56:33.388Z,5.62
2023-05-20T18:59:02.124Z,5.75
2023-05-20T19:01:31.406Z,5.42
2023-05-20T19:04:00.456Z,6.42
2023-05-20T19:06:29.104Z,9.50
2023-05-20T19:08:57.760Z,5.35
2023-05-20T19:11:26.403Z,7.30
2023-05-20T19:13:55.224Z,6.47
2023-05-20T19:16:23.988Z,6.33
2023-05-20T19:18:52.642Z,5.47
2023-05-20T19:21:21.393Z,6.33
2023-05-20T19:23:50.228Z,6.58
2023-05-20T19:26:19.735Z,6.80
2023-05-20T19:28:48.449Z,6.78
2023-05-20T19:31:18.855Z,6.17
2023-05-20T19:33:49.350Z,7.80
2023-05-20T19:36:18.440Z,7.17
2023-05-20T19:38:47.654Z,8.30
2023-05-20T19:41:16.346Z,11.35
2023-05-20T19:43:45.065Z,6.42
2023-05-20T19:46:13.814Z,9.63
2023-05-20T19:48:42.530Z,8.58
2023-05-20T19:51:11.259Z,6.70
2023-05-20T19:53:41.252Z,7.65
2023-05-20T19:56:10.064Z,8.03
2023-05-20T19:58:41.559Z,7.25
2023-05-20T20:01:10.832Z,8.25
2023-05-20T20:03:42.736Z,8.20
2023-05-20T20:06:12.498Z,7.15
2023-05-20T20:08:41.616Z,8.55
2023-05-20T20:11:10.679Z,7.85
2023-05-20T20:13:39.365Z,10.05
2023-05-20T20:16:08.425Z,8.93
2023-05-20T20:18:37.259Z,10.00
2023-05-20T20:21:06.429Z,13.05
2023-05-20T20:23:36.706Z,8.70
2023-05-20T20:26:07.749Z,10.03
2023-05-20T20:28:36.613Z,10.82
2023-05-20T20:31:05.403Z,9.88
2023-05-20T20:33:34.034Z,11.48
2023-05-20T20:36:02.759Z,10.95
2023-05-20T20:38:31.388Z,8.98
2023-05-20T20:41:01.681Z,9.80
2023-05-20T20:43:30.792Z,9.98
2023-05-20T20:46:00.064Z,10.03
2023-05-20T20:48:28.848Z,9.98
2023-05-20T20:50:57.524Z,9.93
2023-05-20T20:53:26.722Z,8.68
2023-05-20T20:55:56.849Z,12.78
2023-05-20T20:58:27.101Z,13.85
2023-05-20T21:00:55.781Z,13.18
2023-05-20T21:03:26.322Z,9.25
2023-05-20T21:05:55.227Z,12.82
2023-05-20T21:08:25.512Z,9.60
2023-05-20T21:10:56.064Z,11.18
2023-05-20T21:13:24.666Z,10.58
2023-05-20T21:15:53.479Z,13.15
2023-05-20T21:18:41.471Z,12.45
2023-05-20T21:21:11.772Z,12.20
2023-05-20T21:23:42.184Z,12.15
2023-05-20T21:26:10.811Z,12.10
2023-05-20T21:28:39.452Z,13.00
2023-05-20T21:31:08.147Z,12.20
2023-05-20T21:33:36.940Z,13.08
2023-05-20T21:36:05.993Z,13.40
2023-05-20T21:38:34.648Z,14.20
2023-05-20T21:41:03.427Z,13.28
2023-05-20T21:43:32.086Z,15.32
2023-05-20T21:46:00.795Z,13.75
2023-05-20T21:48:29.486Z,12.47
2023-05-20T21:50:58.193Z,11.53
2023-05-20T21:53:26.815Z,11.00
2023-05-20T21:55:55.876Z,14.98
2023-05-20T21:58:24.559Z,11.85
2023-05-20T22:00:53.279Z,14.60
2023-05-20T22:03:22.190Z,12.98
2023-05-20T22:05:51.200Z,11.57
2023-05-20T22:08:19.854Z,15.43
2023-05-20T22:10:48.479Z,10.93
2023-05-20T22:13:17.226Z,10.95
2023-05-20T22:15:45.888Z,16.97
2023-05-20T22:18:14.901Z,12.03
2023-05-20T22:20:43.703Z,16.15
2023-05-20T22:23:12.467Z,12.03
2023-05-20T22:25:41.168Z,12.07
2023-05-20T22:28:09.837Z,14.35
2023-05-20T22:30:38.906Z,13.72
2023-05-20T22:33:07.591Z,16.80
2023-05-20T22:35:36.501Z,12.37
2023-05-20T22:38:05.375Z,13.95
2023-05-20T22:40:34.682Z,13.03
2023-05-20T22:43:03.334Z,13.10
2023-05-20T22:45:32.019Z,16.20
2023-05-20T22:48:02.012Z,14.35
2023-05-20T22:50:30.972Z,12.90
2023-05-20T22:52:59.614Z,13.55
2023-05-20T22:55:28.261Z,11.70
2023-05-20T22:57:57.708Z,14.60
2023-05-20T23:00:26.378Z,12.80
2023-05-20T23:02:56.625Z,16.02
2023-05-20T23:05:25.346Z,16.15
2023-05-20T23:07:55.032Z,14.45
2023-05-20T23:10:25.288Z,11.93
2023-05-20T23:12:53.986Z,15.85
2023-05-20T23:15:24.361Z,15.45
2023-05-20T23:17:53.026Z,13.65
2023-05-20T23:20:22.374Z,12.70
2023-05-20T23:22:51.230Z,14.93
2023-05-20T23:25:19.961Z,14.38
2023-05-20T23:27:48.646Z,12.80
2023-05-20T23:30:17.281Z,12.93
2023-05-20T23:32:46.039Z,11.83
2023-05-20T23:35:14.694Z,12.78
2023-05-20T23:37:43.335Z,15.32
2023-05-20T23:40:12.874Z,12.85
2023-05-20T23:42:41.593Z,13.88
2023-05-20T23:45:11.171Z,14.15
2023-05-20T23:47:39.933Z,14.05
2023-05-20T23:50:09.331Z,10.98
2023-05-20T23:52:37.984Z,13.62
2023-05-20T23:55:08.723Z,15.18
2023-05-20T23:57:37.378Z,17.10
